createdAt,value
2023-02-08T00:00:53.121Z,46.05
2023-02-08T00:03:19.552Z,40.03
2023-02-08T00:05:45.939Z,35.63
2023-02-08T00:08:12.320Z,35.53
2023-02-08T00:10:39.230Z,36.70
2023-02-08T00:13:05.846Z,34.88
2023-02-08T00:15:32.250Z,34.70
2023-02-08T00:17:58.688Z,33.75
2023-02-08T00:20:25.139Z,30.63
2023-02-08T00:22:52.638Z,29.65
2023-02-08T00:25:20.010Z,29.98
2023-02-08T00:27:46.650Z,34.63
2023-02-08T00:30:13.111Z,34.08
2023-02-08T00:32:39.530Z,36.38
2023-02-08T00:35:06.152Z,38.65
2023-02-08T00:37:32.549Z,39.95
2023-02-08T00:40:01.414Z,41.75
2023-02-08T00:42:28.172Z,42.40
2023-02-08T00:44:54.615Z,45.50
2023-02-08T00:47:20.985Z,50.45
2023-02-08T00:49:47.505Z,54.33
2023-02-08T00:52:13.939Z,49.30
2023-02-08T00:54:41.857Z,52.53
2023-02-08T00:57:08.982Z,47.28
2023-02-08T00:59:35.381Z,49.20
2023-02-08T01:02:01.956Z,51.10
2023-02-08T01:04:28.368Z,47.28
2023-02-08T01:06:54.768Z,48.40
2023-02-08T01:09:21.208Z,46.38
2023-02-08T01:11:47.621Z,47.20
2023-02-08T01:14:14.114Z,45.22
2023-02-08T01:16:40.552Z,46.90
2023-02-08T01:19:07.019Z,36.88
2023-02-08T01:21:37.571Z,35.53
2023-02-08T01:24:04.677Z,34.70
2023-02-08T01:26:31.912Z,33.38
2023-02-08T01:28:59.400Z,32.95
2023-02-08T01:31:37.759Z,29.45
2023-02-08T01:34:04.741Z,30.50
2023-02-08T01:36:31.786Z,30.75
2023-02-08T01:38:58.277Z,29.17
2023-02-08T01:41:32.912Z,29.27
2023-02-08T01:44:04.199Z,29.65
2023-02-08T01:46:31.353Z,31.92
2023-02-08T01:49:01.670Z,37.83
2023-02-08T01:51:32.350Z,42.75
2023-02-08T01:54:00.411Z,39.15
2023-02-08T01:56:29.246Z,36.55
2023-02-08T01:58:58.653Z,41.75
2023-02-08T02:01:25.842Z,41.10
2023-02-08T02:03:52.347Z,38.42
2023-02-08T02:06:23.341Z,39.95
2023-02-08T02:09:07.733Z,37.17
2023-02-08T02:11:34.312Z,36.80
2023-02-08T02:14:01.149Z,39.58
2023-02-08T02:16:27.564Z,38.92
2023-02-08T02:18:53.986Z,34.97
2023-02-08T02:21:39.915Z,34.42
2023-02-08T02:24:52.626Z,32.70
2023-02-08T02:27:48.081Z,32.17
2023-02-08T02:30:30.030Z,36.75
2023-02-08T02:32:59.648Z,32.70
2023-02-08T02:35:29.153Z,33.28
2023-02-08T02:38:02.441Z,34.10
2023-02-08T02:40:47.575Z,31.35
2023-02-08T02:43:41.518Z,34.90
2023-02-08T02:46:13.688Z,30.83
2023-02-08T02:48:45.900Z,35.78
2023-02-08T02:51:16.846Z,33.38
2023-02-08T02:53:59.403Z,33.80
2023-02-08T02:58:56.728Z,33.53
2023-02-08T03:01:27.070Z,32.63
2023-02-08T03:03:54.468Z,34.53
2023-02-08T03:06:29.733Z,35.15
2023-02-08T03:09:08.818Z,34.15
2023-02-08T03:11:36.868Z,33.70
2023-02-08T03:14:29.684Z,35.80
2023-02-08T03:19:32.020Z,30.92
2023-02-08T03:22:06.790Z,30.83
2023-02-08T03:24:40.318Z,29.83
2023-02-08T03:27:13.021Z,26.17
2023-02-08T03:30:00.903Z,25.55
2023-02-08T03:32:41.764Z,25.20
2023-02-08T03:35:15.886Z,28.35
2023-02-08T03:37:47.699Z,28.48
2023-02-08T03:40:22.786Z,31.52
2023-02-08T03:42:51.052Z,24.00
2023-02-08T03:45:22.041Z,25.48
2023-02-08T03:47:49.798Z,27.30
2023-02-08T03:50:18.034Z,26.13
2023-02-08T03:52:48.920Z,22.30
2023-02-08T03:55:18.840Z,23.90
2023-02-08T03:57:59.328Z,26.13
2023-02-08T04:00:26.042Z,26.08
2023-02-08T04:02:58.286Z,23.02
2023-02-08T04:05:25.702Z,24.88
2023-02-08T04:07:52.688Z,24.55
2023-02-08T04:10:19.340Z,26.77
2023-02-08T04:12:47.781Z,24.52
2023-02-08T04:15:14.249Z,26.85
2023-02-08T04:17:40.742Z,28.45
2023-02-08T04:20:07.712Z,25.20
2023-02-08T04:22:34.142Z,27.88
2023-02-08T04:25:00.777Z,29.73
2023-02-08T04:27:27.225Z,28.85
2023-02-08T04:29:53.723Z,33.60
2023-02-08T04:32:20.116Z,34.63
2023-02-08T04:34:46.620Z,37.20
2023-02-08T04:37:13.035Z,34.30
2023-02-08T04:39:39.439Z,33.97
2023-02-08T04:42:05.828Z,31.15
2023-02-08T04:44:32.881Z,33.45
2023-02-08T04:47:00.106Z,34.20
2023-02-08T04:49:26.518Z,34.42
2023-02-08T04:51:52.893Z,33.40
2023-02-08T04:54:19.367Z,35.00
2023-02-08T04:56:45.754Z,34.78
2023-02-08T04:59:12.153Z,35.03
2023-02-08T05:01:38.573Z,35.63
2023-02-08T05:04:05.036Z,35.40
2023-02-08T05:06:31.400Z,35.88
2023-02-08T05:08:57.846Z,34.00
2023-02-08T05:11:25.096Z,35.72
2023-02-08T05:13:51.513Z,36.20
2023-02-08T05:16:18.567Z,36.38
2023-02-08T05:18:45.091Z,34.78
2023-02-08T05:21:11.631Z,34.50
2023-02-08T05:23:41.223Z,36.97
2023-02-08T05:26:08.977Z,38.70
2023-02-08T05:28:35.746Z,39.42
2023-02-08T05:31:14.201Z,33.63
2023-02-08T05:33:40.797Z,34.70
2023-02-08T05:36:07.373Z,34.03
2023-02-08T05:38:33.786Z,33.75
2023-02-08T05:41:00.187Z,31.95
2023-02-08T05:43:26.648Z,35.80
2023-02-08T05:45:53.080Z,35.85
2023-02-08T05:48:19.510Z,36.40
2023-02-08T05:50:45.917Z,32.97
2023-02-08T05:53:12.308Z,33.35
2023-02-08T05:55:38.706Z,32.70
2023-02-08T05:58:05.097Z,32.83
2023-02-08T06:00:31.510Z,31.45
2023-02-08T06:02:58.408Z,31.42
2023-02-08T06:05:24.955Z,32.00
2023-02-08T06:07:51.348Z,34.95
2023-02-08T06:10:17.843Z,33.25
2023-02-08T06:12:44.287Z,30.65
2023-02-08T06:15:10.832Z,32.72
2023-02-08T06:17:37.193Z,33.10
2023-02-08T06:20:04.373Z,30.38
2023-02-08T06:22:30.942Z,30.23
2023-02-08T06:24:57.303Z,29.83
2023-02-08T06:27:23.705Z,29.40
2023-02-08T06:29:50.120Z,29.52
2023-02-08T06:32:16.608Z,32.55
2023-02-08T06:34:43.082Z,31.30
2023-02-08T06:37:09.543Z,31.17
2023-02-08T06:39:35.979Z,36.45
2023-02-08T06:42:02.497Z,33.30
2023-02-08T06:44:28.916Z,32.65
2023-02-08T06:46:56.377Z,29.17
2023-02-08T06:49:22.807Z,27.27
2023-02-08T06:51:49.240Z,28.13
2023-02-08T06:54:15.664Z,28.80
2023-02-08T06:56:42.800Z,25.38
2023-02-08T06:59:09.418Z,28.63
2023-02-08T07:01:35.844Z,32.28
2023-02-08T07:04:02.303Z,31.92
2023-02-08T07:06:28.719Z,33.72
2023-02-08T07:08:55.124Z,31.73
2023-02-08T07:11:21.736Z,28.33
2023-02-08T07:13:49.403Z,28.40
2023-02-08T07:16:16.492Z,32.22
2023-02-08T07:18:42.990Z,34.42
2023-02-08T07:21:12.589Z,35.70
2023-02-08T07:23:39.440Z,34.53
2023-02-08T07:26:09.132Z,35.28
2023-02-08T07:28:36.205Z,39.65
2023-02-08T07:31:11.379Z,36.85
2023-02-08T07:33:37.796Z,35.80
2023-02-08T07:36:05.326Z,37.58
2023-02-08T07:38:33.699Z,37.50
2023-02-08T07:41:12.237Z,42.63
2023-02-08T07:43:39.678Z,43.65
2023-02-08T07:46:11.338Z,42.78
2023-02-08T07:48:40.113Z,39.28
2023-02-08T07:51:07.175Z,38.90
2023-02-08T07:53:33.668Z,36.55
2023-02-08T07:56:00.106Z,40.78
2023-02-08T07:58:26.838Z,42.97
2023-02-08T08:00:53.269Z,37.10
2023-02-08T08:03:19.873Z,39.45
2023-02-08T08:05:46.577Z,38.92
2023-02-08T08:08:13.442Z,37.20
2023-02-08T08:10:40.438Z,36.25
2023-02-08T08:13:07.001Z,39.22
2023-02-08T08:15:33.449Z,37.40
2023-02-08T08:17:59.882Z,35.53
2023-02-08T08:20:26.599Z,39.20
2023-02-08T08:22:53.012Z,38.55
2023-02-08T08:25:19.482Z,31.83
2023-02-08T08:27:46.001Z,30.65
2023-02-08T08:30:14.991Z,33.78
2023-02-08T08:32:41.442Z,32.40
2023-02-08T08:35:08.668Z,33.30
2023-02-08T08:37:35.201Z,30.45
2023-02-08T08:40:02.234Z,32.33
2023-02-08T08:42:28.697Z,35.47
2023-02-08T08:44:55.156Z,33.33
2023-02-08T08:47:21.713Z,34.22
2023-02-08T08:49:48.119Z,31.00
2023-02-08T08:52:14.911Z,33.20
2023-02-08T08:54:41.370Z,36.90
2023-02-08T08:57:07.807Z,36.58
2023-02-08T08:59:34.378Z,41.63
2023-02-08T09:02:00.938Z,39.75
2023-02-08T09:04:27.364Z,39.00
2023-02-08T09:06:54.157Z,41.88
2023-02-08T09:09:21.611Z,40.22
2023-02-08T09:11:48.652Z,46.53
2023-02-08T09:14:15.196Z,43.20
2023-02-08T09:16:42.744Z,43.88
2023-02-08T09:19:10.597Z,43.03
2023-02-08T09:21:37.338Z,40.40
2023-02-08T09:24:04.015Z,42.00
2023-02-08T09:26:30.511Z,38.53
2023-02-08T09:28:56.934Z,38.40
2023-02-08T09:31:26.042Z,33.67
2023-02-08T09:33:54.392Z,34.55
2023-02-08T09:36:22.198Z,33.92
2023-02-08T09:38:51.907Z,28.85
2023-02-08T09:41:33.012Z,17.83
2023-02-08T09:44:21.196Z,19.10
2023-02-08T09:47:14.897Z,32.08
2023-02-08T09:49:55.393Z,33.45
2023-02-08T09:52:27.138Z,33.63
2023-02-08T09:54:57.458Z,34.55
2023-02-08T09:57:27.778Z,29.40
2023-02-08T10:00:00.403Z,29.23
2023-02-08T10:02:29.106Z,28.48
2023-02-08T10:05:02.549Z,28.45
2023-02-08T10:07:29.591Z,29.27
2023-02-08T10:09:59.550Z,26.33
2023-02-08T10:12:32.282Z,26.33
2023-02-08T10:15:38.422Z,23.08
2023-02-08T10:18:26.604Z,19.58
2023-02-08T10:21:08.129Z,13.93
2023-02-08T10:23:48.610Z,12.52
2023-02-08T10:26:22.000Z,9.27
2023-02-08T10:29:04.456Z,11.57
2023-02-08T10:31:38.510Z,12.52
2023-02-08T10:34:38.987Z,11.07
2023-02-08T10:37:21.913Z,10.55
2023-02-08T10:39:49.577Z,10.23
2023-02-08T10:42:18.653Z,10.48
2023-02-08T10:45:22.615Z,11.50
2023-02-08T10:47:54.313Z,10.23
2023-02-08T10:50:37.652Z,10.20
2023-02-08T10:53:04.379Z,8.48
2023-02-08T10:55:33.163Z,15.05
2023-02-08T10:58:03.017Z,14.50
2023-02-08T11:00:32.395Z,10.48
2023-02-08T11:03:01.854Z,10.30
2023-02-08T11:05:36.741Z,9.80
2023-02-08T11:08:11.450Z,8.35
2023-02-08T11:10:39.282Z,9.27
2023-02-08T11:13:18.214Z,10.55
2023-02-08T11:15:54.411Z,10.68
2023-02-08T11:18:26.674Z,10.40
2023-02-08T11:20:57.417Z,8.32
2023-02-08T11:23:28.549Z,8.75
2023-02-08T11:25:56.511Z,9.32
2023-02-08T11:28:30.814Z,9.98
2023-02-08T11:31:03.278Z,10.88
2023-02-08T11:36:00.731Z,8.23
2023-02-08T11:38:28.202Z,9.85
2023-02-08T11:41:00.248Z,10.50
2023-02-08T11:43:35.372Z,9.10
2023-02-08T11:46:03.898Z,9.88
2023-02-08T11:48:55.560Z,9.93
2023-02-08T11:51:27.837Z,6.97
2023-02-08T11:53:54.486Z,8.45
2023-02-08T11:56:25.456Z,9.82
2023-02-08T11:59:02.647Z,8.18
2023-02-08T12:01:30.655Z,8.35
2023-02-08T12:03:59.530Z,12.63
2023-02-08T12:06:50.550Z,10.52
2023-02-08T12:09:27.698Z,10.38
2023-02-08T12:12:20.336Z,8.77
2023-02-08T12:15:07.021Z,8.88
2023-02-08T12:17:59.810Z,11.15
2023-02-08T12:20:42.791Z,8.00
2023-02-08T12:23:28.086Z,7.20
2023-02-08T12:26:06.457Z,7.45
2023-02-08T12:29:02.355Z,8.05
2023-02-08T12:31:48.673Z,7.32
2023-02-08T12:34:53.976Z,8.35
2023-02-08T12:37:49.787Z,7.95
2023-02-08T12:40:49.957Z,9.30
2023-02-08T12:43:23.496Z,9.00
2023-02-08T12:46:06.776Z,7.57
2023-02-08T12:48:57.359Z,8.25
2023-02-08T12:51:37.625Z,9.93
2023-02-08T12:54:12.334Z,11.63
2023-02-08T12:56:46.624Z,13.90
2023-02-08T12:59:32.879Z,12.57
2023-02-08T13:02:03.524Z,13.75
2023-02-08T13:04:33.358Z,12.68
2023-02-08T13:07:04.436Z,14.10
2023-02-08T13:09:35.500Z,12.95
2023-02-08T13:12:04.095Z,13.40
2023-02-08T13:14:37.452Z,13.80
2023-02-08T13:17:16.193Z,14.23
2023-02-08T13:20:00.131Z,14.05
2023-02-08T13:22:27.303Z,11.68
2023-02-08T13:25:06.263Z,12.77
2023-02-08T13:27:33.729Z,14.70
2023-02-08T13:30:01.224Z,11.68
2023-02-08T13:32:30.492Z,13.73
2023-02-08T13:35:00.520Z,5.15
2023-02-08T13:37:32.874Z,3.88
2023-02-08T13:40:03.700Z,3.20
2023-02-08T13:42:37.963Z,5.60
2023-02-08T13:45:05.413Z,4.85
2023-02-08T13:47:42.512Z,3.53
2023-02-08T13:50:29.162Z,3.33
2023-02-08T13:52:55.952Z,4.03
2023-02-08T13:55:28.459Z,3.92
2023-02-08T14:00:32.865Z,3.35
2023-02-08T14:03:11.700Z,4.25
2023-02-08T14:06:16.204Z,6.95
2023-02-08T14:09:19.531Z,7.05
2023-02-08T14:11:49.546Z,5.00
2023-02-08T14:14:19.851Z,5.55
2023-02-08T14:17:07.319Z,4.65
2023-02-08T14:19:35.883Z,4.20
2023-02-08T14:22:03.920Z,3.97
2023-02-08T14:24:34.704Z,5.38
2023-02-08T14:27:22.441Z,4.68
2023-02-08T14:30:18.032Z,6.60
2023-02-08T14:32:49.521Z,5.68
2023-02-08T14:35:15.868Z,6.70
2023-02-08T14:37:44.352Z,8.27
2023-02-08T14:40:16.910Z,7.07
2023-02-08T14:45:38.975Z,5.30
2023-02-08T14:48:19.214Z,5.32
2023-02-08T14:50:55.578Z,3.67
2023-02-08T14:53:36.487Z,6.10
2023-02-08T14:56:20.509Z,5.95
2023-02-08T14:58:51.353Z,5.78
2023-02-08T15:01:26.999Z,8.02
2023-02-08T15:04:01.630Z,7.57
2023-02-08T15:06:37.653Z,9.82
2023-02-08T15:09:06.076Z,8.45
2023-02-08T15:11:33.658Z,7.18
2023-02-08T15:14:02.776Z,8.75
2023-02-08T15:16:34.150Z,10.07
2023-02-08T15:19:01.101Z,6.97
2023-02-08T15:21:31.806Z,10.88
2023-02-08T15:24:06.111Z,7.95
2023-02-08T15:26:33.016Z,7.03
2023-02-08T15:29:01.028Z,7.38
2023-02-08T15:31:32.035Z,7.57
2023-02-08T15:33:59.426Z,8.88
2023-02-08T15:36:29.934Z,7.68
2023-02-08T15:39:03.204Z,9.20
2023-02-08T15:41:33.838Z,9.07
2023-02-08T15:44:25.230Z,10.25
2023-02-08T15:46:57.914Z,10.05
2023-02-08T15:49:37.252Z,11.20
2023-02-08T15:52:04.736Z,7.13
2023-02-08T15:54:31.299Z,9.27
2023-02-08T15:57:02.086Z,8.20
2023-02-08T15:59:32.707Z,8.48
2023-02-08T16:02:24.425Z,8.73
2023-02-08T16:04:51.034Z,9.55
2023-02-08T16:07:40.180Z,12.07
2023-02-08T16:10:18.373Z,12.23
2023-02-08T16:12:51.346Z,14.18
2023-02-08T16:15:36.639Z,10.05
2023-02-08T16:18:03.432Z,12.48
2023-02-08T16:20:33.953Z,11.38
2023-02-08T16:23:23.956Z,13.57
2023-02-08T16:25:50.942Z,12.65
2023-02-08T16:28:29.176Z,11.65
2023-02-08T16:31:01.226Z,28.90
2023-02-08T16:33:29.282Z,31.70
2023-02-08T16:36:01.775Z,28.00
2023-02-08T16:41:01.303Z,18.95
2023-02-08T16:43:28.651Z,25.92
2023-02-08T16:46:10.422Z,18.25
2023-02-08T16:48:38.876Z,15.77
2023-02-08T16:51:07.572Z,15.77
2023-02-08T16:53:41.959Z,16.00
2023-02-08T16:56:10.567Z,16.70
2023-02-08T16:58:37.599Z,12.55
2023-02-08T17:01:04.650Z,13.30
2023-02-08T17:03:32.580Z,14.88
2023-02-08T17:06:00.198Z,14.52
2023-02-08T17:08:26.887Z,12.82
2023-02-08T17:10:58.701Z,13.32
2023-02-08T17:13:28.119Z,14.57
2023-02-08T17:15:54.633Z,13.98
2023-02-08T17:18:22.753Z,14.75
2023-02-08T17:20:49.175Z,13.13
2023-02-08T17:23:15.903Z,11.50
2023-02-08T17:25:43.067Z,12.27
2023-02-08T17:28:15.242Z,12.70
2023-02-08T17:30:43.373Z,12.25
2023-02-08T17:33:17.874Z,12.43
2023-02-08T17:35:49.793Z,15.68
2023-02-08T17:38:17.547Z,12.15
2023-02-08T17:40:44.594Z,13.70
2023-02-08T17:43:11.892Z,14.27
2023-02-08T17:45:39.848Z,15.75
2023-02-08T17:48:06.663Z,16.90
2023-02-08T17:50:33.100Z,14.40
2023-02-08T17:52:59.646Z,11.68
2023-02-08T17:55:26.076Z,11.18
2023-02-08T17:57:53.723Z,15.30
2023-02-08T18:00:22.158Z,10.63
2023-02-08T18:02:50.979Z,12.30
2023-02-08T18:05:20.182Z,12.80
2023-02-08T18:07:46.716Z,13.05
2023-02-08T18:10:15.080Z,12.10
2023-02-08T18:12:41.661Z,16.33
2023-02-08T18:15:12.009Z,12.55
2023-02-08T18:17:39.485Z,14.85
2023-02-08T18:20:06.826Z,13.10
2023-02-08T18:22:33.364Z,13.10
2023-02-08T18:24:59.828Z,15.10
2023-02-08T18:27:27.241Z,15.20
2023-02-08T18:29:54.408Z,14.43
2023-02-08T18:32:21.998Z,12.75
2023-02-08T18:34:49.522Z,12.57
2023-02-08T18:37:16.022Z,10.70
2023-02-08T18:39:42.500Z,12.32
2023-02-08T18:42:09.262Z,13.07
2023-02-08T18:44:38.628Z,11.15
2023-02-08T18:47:06.885Z,10.98
2023-02-08T18:49:40.262Z,12.02
2023-02-08T18:52:11.557Z,12.60
2023-02-08T18:54:38.900Z,12.57
2023-02-08T18:57:06.141Z,15.27
2023-02-08T18:59:33.400Z,15.68
2023-02-08T19:02:01.583Z,13.45
2023-02-08T19:04:28.327Z,13.40
2023-02-08T19:06:54.784Z,14.75
2023-02-08T19:09:21.267Z,15.05
2023-02-08T19:11:47.739Z,14.20
2023-02-08T19:14:15.920Z,14.30
2023-02-08T19:16:43.082Z,15.02
2023-02-08T19:19:09.555Z,12.02
2023-02-08T19:21:36.092Z,14.18
2023-02-08T19:24:03.372Z,14.15
2023-02-08T19:26:32.685Z,15.70
2023-02-08T19:29:00.573Z,14.98
2023-02-08T19:31:27.916Z,13.77
2023-02-08T19:33:58.557Z,15.05
2023-02-08T19:36:31.226Z,13.88
2023-02-08T19:38:58.792Z,16.88
2023-02-08T19:41:32.217Z,14.80
2023-02-08T19:43:59.364Z,14.20
2023-02-08T19:46:27.503Z,15.40
2023-02-08T19:49:00.169Z,16.80
2023-02-08T19:51:27.880Z,13.77
2023-02-08T19:53:56.652Z,15.57
2023-02-08T19:56:23.305Z,14.85
2023-02-08T19:58:49.760Z,14.57
2023-02-08T20:01:18.795Z,14.05
2023-02-08T20:03:46.696Z,14.73
2023-02-08T20:06:14.417Z,14.73
2023-02-08T20:08:40.884Z,13.32
2023-02-08T20:11:07.283Z,14.18
2023-02-08T20:13:33.769Z,15.05
2023-02-08T20:16:00.279Z,14.60
2023-02-08T20:18:26.811Z,14.27
2023-02-08T20:21:01.904Z,15.40
2023-02-08T20:23:28.639Z,14.23
2023-02-08T20:26:13.137Z,15.15
2023-02-08T20:28:42.054Z,15.93
2023-02-08T20:31:20.724Z,13.35
2023-02-08T20:33:47.496Z,14.30
2023-02-08T20:36:18.891Z,13.82
2023-02-08T20:38:45.551Z,13.60
2023-02-08T20:41:14.492Z,14.52
2023-02-08T20:43:42.512Z,15.52
2023-02-08T20:46:12.587Z,14.05
2023-02-08T20:48:39.057Z,15.43
2023-02-08T20:51:06.853Z,14.98
2023-02-08T20:53:34.826Z,16.83
2023-02-08T20:56:08.814Z,14.75
2023-02-08T20:58:35.779Z,16.88
2023-02-08T21:01:02.287Z,18.92
2023-02-08T21:03:28.947Z,16.10
2023-02-08T21:05:55.362Z,15.95
2023-02-08T21:08:21.716Z,16.85
2023-02-08T21:10:48.137Z,18.10
2023-02-08T21:13:14.630Z,17.40
2023-02-08T21:15:43.006Z,16.92
2023-02-08T21:18:11.898Z,17.10
2023-02-08T21:20:39.375Z,18.48
2023-02-08T21:23:06.957Z,17.60
2023-02-08T21:25:33.434Z,17.60
2023-02-08T21:27:59.946Z,16.20
2023-02-08T21:30:26.372Z,16.98
2023-02-08T21:32:52.825Z,16.30
2023-02-08T21:35:19.252Z,15.38
2023-02-08T21:37:45.701Z,15.02
2023-02-08T21:40:12.211Z,14.65
2023-02-08T21:42:38.629Z,17.85
2023-02-08T21:45:05.239Z,15.95
2023-02-08T21:47:31.704Z,15.25
2023-02-08T21:50:16.635Z,17.10
2023-02-08T21:53:01.475Z,18.42
2023-02-08T21:55:27.899Z,13.93
2023-02-08T21:57:54.366Z,15.90
2023-02-08T22:00:20.742Z,16.83
2023-02-08T22:02:47.275Z,18.25
2023-02-08T22:05:13.821Z,17.70
2023-02-08T22:07:54.262Z,14.50
2023-02-08T22:10:26.330Z,16.25
2023-02-08T22:12:53.926Z,14.75
2023-02-08T22:15:22.919Z,15.75
2023-02-08T22:17:57.291Z,14.88
2023-02-08T22:20:23.792Z,13.98
2023-02-08T22:22:53.603Z,15.52
2023-02-08T22:25:21.537Z,14.43
2023-02-08T22:27:48.153Z,14.13
2023-02-08T22:30:17.407Z,12.65
2023-02-08T22:32:45.800Z,12.52
2023-02-08T22:35:12.829Z,14.15
2023-02-08T22:37:40.505Z,11.70
2023-02-08T22:40:07.512Z,11.85
2023-02-08T22:42:34.003Z,11.70
2023-02-08T22:45:00.398Z,15.07
2023-02-08T22:47:26.827Z,12.05
2023-02-08T22:49:57.356Z,11.30
2023-02-08T22:52:25.669Z,14.88
2023-02-08T22:54:52.556Z,11.77
2023-02-08T22:57:19.356Z,12.57
2023-02-08T22:59:47.548Z,12.32
2023-02-08T23:02:17.113Z,10.32
2023-02-08T23:04:43.535Z,11.77
2023-02-08T23:07:10.054Z,12.27
2023-02-08T23:09:36.697Z,13.35
2023-02-08T23:12:03.425Z,12.45
2023-02-08T23:14:30.045Z,10.75
2023-02-08T23:16:56.517Z,12.38
2023-02-08T23:19:23.184Z,11.75
2023-02-08T23:21:49.643Z,12.20
2023-02-08T23:24:16.024Z,13.00
2023-02-08T23:26:42.568Z,13.18
2023-02-08T23:29:09.007Z,11.20
2023-02-08T23:31:35.539Z,10.32
2023-02-08T23:34:02.060Z,12.30
2023-02-08T23:36:28.530Z,12.45
2023-02-08T23:38:55.061Z,14.10
2023-02-08T23:41:22.810Z,12.13
2023-02-08T23:43:50.524Z,11.10
2023-02-08T23:46:25.411Z,12.93
2023-02-08T23:48:52.205Z,11.23
2023-02-08T23:51:21.053Z,13.35
2023-02-08T23:53:47.775Z,14.68
2023-02-08T23:56:21.611Z,16.73
2023-02-08T23:58:50.901Z,13.52
